Time;durP1;ratioP1;P1;durP2;ratioP2;P2;SDS_P1;SDS_P2;PMS_P1;PMS_P2;Temp;Humidity;BMP_temperature;BMP_pressure;BME280_temperature;BME280_humidity;BME280_pressure;Samples;Min_cycle;Max_cycle;Signal;HPM_P1;HPM_P2
2022/03/20 00:01:10;;;;;;;40.70;25.00;;;3.80;50.00;;;;;;5065317;28;20183;-64
2022/03/20 00:03:37;;;;;;;33.22;22.15;;;3.70;50.20;;;;;;5062791;28;20186;-64
2022/03/20 00:06:05;;;;;;;36.50;23.75;;;3.70;50.90;;;;;;5063007;28;20221;-64
2022/03/20 00:08:32;;;;;;;35.33;23.02;;;3.70;51.20;;;;;;5052567;28;20221;-65
2022/03/20 00:11:01;;;;;;;29.98;21.35;;;3.70;50.80;;;;;;5053250;28;20190;-64
2022/03/20 00:13:30;;;;;;;36.40;24.20;;;3.70;51.00;;;;;;5052437;28;20585;-63
2022/03/20 00:15:59;;;;;;;36.25;24.20;;;3.70;51.00;;;;;;5061241;28;20189;-64
2022/03/20 00:18:28;;;;;;;50.55;28.73;;;3.70;50.50;;;;;;5062958;28;20186;-64
2022/03/20 00:21:01;;;;;;;44.95;32.28;;;3.70;50.00;;;;;;5052505;28;20186;-64
2022/03/20 00:23:30;;;;;;;44.33;29.38;;;3.60;50.10;;;;;;5052622;28;20190;-64
2022/03/20 00:25:58;;;;;;;35.38;25.65;;;3.60;50.90;;;;;;5052426;28;20568;-64
2022/03/20 00:28:27;;;;;;;39.22;24.77;;;3.50;49.90;;;;;;5064339;28;20186;-63
2022/03/20 00:30:55;;;;;;;36.10;24.25;;;3.40;50.10;;;;;;5072878;28;20201;-63
2022/03/20 00:33:22;;;;;;;37.63;25.08;;;3.30;50.60;;;;;;5060931;28;20333;-64
2022/03/20 00:35:49;;;;;;;35.28;25.25;;;3.30;50.80;;;;;;5063350;28;20247;-64
2022/03/20 00:38:16;;;;;;;34.80;21.83;;;3.30;50.60;;;;;;5052613;28;20213;-63
2022/03/20 00:40:46;;;;;;;41.50;26.58;;;3.20;50.30;;;;;;5061060;28;20186;-64
2022/03/20 00:43:13;;;;;;;38.53;22.95;;;3.10;50.70;;;;;;5071991;28;20713;-63
2022/03/20 00:45:40;;;;;;;38.30;23.52;;;3.00;50.50;;;;;;5057818;28;20197;-64
2022/03/20 00:48:09;;;;;;;34.30;23.15;;;3.00;50.60;;;;;;5064704;28;20190;-64
2022/03/20 00:50:36;;;;;;;39.25;24.35;;;3.00;50.60;;;;;;5072010;28;20226;-63
2022/03/20 00:53:04;;;;;;;36.47;24.10;;;2.90;50.20;;;;;;5058203;28;20186;-64
2022/03/20 00:55:35;;;;;;;39.13;24.10;;;2.90;51.00;;;;;;5052052;28;20195;-64
2022/03/20 00:58:04;;;;;;;39.30;26.52;;;2.90;52.20;;;;;;5052160;28;20190;-64
2022/03/20 01:00:32;;;;;;;35.42;23.63;;;2.80;51.80;;;;;;5051935;28;20301;-65
2022/03/20 01:03:00;;;;;;;41.92;24.75;;;2.80;51.90;;;;;;5067689;28;20185;-63
2022/03/20 01:05:27;;;;;;;39.22;27.23;;;2.90;52.10;;;;;;5072063;28;20596;-65
2022/03/20 01:07:54;;;;;;;48.10;27.95;;;2.90;52.60;;;;;;5057081;28;20186;-64
2022/03/20 01:10:21;;;;;;;39.10;27.20;;;2.90;52.70;;;;;;5063736;28;20247;-64
2022/03/20 01:12:49;;;;;;;41.50;25.88;;;2.90;53.10;;;;;;5051542;28;20198;-64
2022/03/20 01:15:18;;;;;;;35.30;22.40;;;2.90;52.50;;;;;;5063653;28;20259;-64
2022/03/20 01:17:45;;;;;;;37.28;24.45;;;2.80;52.30;;;;;;5071910;28;20202;-64
2022/03/20 01:20:14;;;;;;;41.22;25.58;;;2.80;52.50;;;;;;5054379;28;20202;-63
2022/03/20 01:22:41;;;;;;;41.05;24.83;;;2.70;52.20;;;;;;5051686;28;20248;-64
2022/03/20 01:25:09;;;;;;;39.45;25.90;;;2.70;51.80;;;;;;5066998;28;20188;-64
2022/03/20 01:27:37;;;;;;;35.50;25.08;;;2.60;52.20;;;;;;5063441;28;20270;-64
2022/03/20 01:30:05;;;;;;;40.00;25.38;;;2.50;53.00;;;;;;5051559;28;20573;-64
2022/03/20 01:32:34;;;;;;;35.13;24.27;;;2.40;53.40;;;;;;5064805;28;20186;-64
2022/03/20 01:35:01;;;;;;;40.95;25.20;;;2.40;52.80;;;;;;5071659;28;20198;-66
2022/03/20 01:37:28;;;;;;;37.08;24.38;;;2.40;53.00;;;;;;5053002;28;20191;-64
2022/03/20 01:39:55;;;;;;;40.55;26.00;;;2.40;53.40;;;;;;5051872;28;20195;-63
2022/03/20 01:42:23;;;;;;;43.30;26.30;;;2.40;53.80;;;;;;5067181;28;20190;-64
2022/03/20 01:44:51;;;;;;;40.05;24.15;;;2.30;54.00;;;;;;5054832;28;20631;-64
2022/03/20 01:47:18;;;;;;;42.30;26.80;;;2.30;53.80;;;;;;5051621;28;20217;-63
2022/03/20 01:49:50;;;;;;;45.60;26.55;;;2.40;54.00;;;;;;5051183;28;20226;-64
2022/03/20 01:52:25;;;;;;;38.72;24.55;;;2.30;54.10;;;;;;5063288;28;20190;-64
2022/03/20 01:54:53;;;;;;;36.00;24.63;;;2.30;54.10;;;;;;5071438;28;20668;-63
2022/03/20 01:57:22;;;;;;;38.22;24.50;;;2.30;55.00;;;;;;5059602;28;20277;-63
2022/03/20 01:59:49;;;;;;;40.55;23.77;;;2.20;55.00;;;;;;5052482;28;20251;-63
2022/03/20 02:02:17;;;;;;;34.92;24.73;;;2.10;54.60;;;;;;5062298;28;20183;-65
2022/03/20 02:04:46;;;;;;;36.88;23.38;;;2.10;54.20;;;;;;5054160;28;20194;-64
2022/03/20 02:07:15;;;;;;;39.10;24.67;;;2.10;54.60;;;;;;5074869;28;20204;-64
2022/03/20 02:09:43;;;;;;;38.10;25.10;;;2.10;54.50;;;;;;5072080;28;20213;-65
2022/03/20 02:12:12;;;;;;;46.50;24.15;;;2.10;55.00;;;;;;5064335;28;20277;-63
2022/03/20 02:14:39;;;;;;;35.95;26.55;;;2.00;54.50;;;;;;5073195;28;20243;-63
2022/03/20 02:17:07;;;;;;;48.55;26.10;;;2.00;55.00;;;;;;5055816;28;20545;-64
2022/03/20 02:19:35;;;;;;;35.25;23.10;;;2.00;55.20;;;;;;5065128;28;20191;-64
2022/03/20 02:22:04;;;;;;;40.78;24.65;;;2.00;55.30;;;;;;5054746;28;20561;-64
2022/03/20 02:24:39;;;;;;;39.72;25.40;;;1.90;55.30;;;;;;5073649;28;20186;-65
2022/03/20 02:27:14;;;;;;;40.40;25.70;;;1.90;55.30;;;;;;5074464;28;20193;-64
2022/03/20 02:29:43;;;;;;;36.40;22.38;;;1.90;55.70;;;;;;5074437;28;20278;-63
2022/03/20 02:32:13;;;;;;;39.53;24.23;;;1.90;55.30;;;;;;5074351;28;20197;-64
2022/03/20 02:34:41;;;;;;;37.72;23.50;;;1.90;54.10;;;;;;5059330;28;20245;-64
2022/03/20 02:37:10;;;;;;;39.67;22.85;;;1.90;54.20;;;;;;5060981;28;20269;-63
2022/03/20 02:39:37;;;;;;;30.50;21.50;;;1.90;54.00;;;;;;5054624;28;20240;-63
2022/03/20 02:42:06;;;;;;;39.78;23.67;;;1.80;54.20;;;;;;5071589;28;20186;-63
2022/03/20 02:44:55;;;;;;;40.28;24.67;;;1.80;54.30;;;;;;5067594;28;20688;-64
2022/03/20 02:47:24;;;;;;;36.15;22.27;;;1.80;54.00;;;;;;5054416;28;20260;-63
2022/03/20 02:49:54;;;;;;;37.70;24.40;;;1.70;54.00;;;;;;5061660;28;20269;-63
2022/03/20 02:52:26;;;;;;;38.67;23.50;;;1.70;54.00;;;;;;5063364;28;20240;-63
2022/03/20 02:54:55;;;;;;;39.53;24.75;;;1.70;54.20;;;;;;5054219;28;20545;-63
2022/03/20 02:57:22;;;;;;;40.67;22.90;;;1.70;54.50;;;;;;5054117;28;20466;-63
2022/03/20 02:59:49;;;;;;;45.20;24.98;;;1.70;54.10;;;;;;5053674;28;20222;-63
2022/03/20 03:02:16;;;;;;;50.75;34.45;;;1.60;54.30;;;;;;5066800;28;20205;-63
2022/03/20 03:04:43;;;;;;;34.38;23.00;;;1.60;54.20;;;;;;5073913;28;20280;-64
2022/03/20 03:07:11;;;;;;;42.58;29.60;;;1.60;54.60;;;;;;5061753;28;20675;-64
2022/03/20 03:12:26;;;;;;;54.55;35.42;;;1.60;54.90;;;;;;5033834;28;20206;-64
2022/03/20 03:17:37;;;;;;;38.80;23.75;;;1.50;53.90;;;;;;5073608;28;20284;-64
2022/03/20 03:20:06;;;;;;;36.88;22.50;;;1.40;53.70;;;;;;5054308;28;20214;-63
2022/03/20 03:22:33;;;;;;;34.53;22.20;;;1.30;53.20;;;;;;5053536;28;20255;-63
2022/03/20 03:25:01;;;;;;;38.10;24.30;;;1.20;51.30;;;;;;5069148;28;20267;-63
2022/03/20 03:27:28;;;;;;;36.38;23.27;;;0.90;51.40;;;;;;5056212;28;20206;-64
2022/03/20 03:29:55;;;;;;;33.72;22.77;;;0.80;52.50;;;;;;5053580;28;20248;-63
2022/03/20 03:32:23;;;;;;;38.63;23.33;;;0.80;54.10;;;;;;5053410;28;20269;-63
2022/03/20 03:37:34;;;;;;;47.25;26.25;;;0.70;57.00;;;;;;5033432;28;20210;-64
2022/03/20 03:40:07;;;;;;;38.47;23.73;;;0.80;57.30;;;;;;5034704;28;20215;-63
2022/03/20 03:42:36;;;;;;;36.00;23.65;;;0.80;57.30;;;;;;5071015;28;20247;-65
2022/03/20 03:45:05;;;;;;;48.60;28.48;;;0.90;57.20;;;;;;5052649;28;20711;-68
2022/03/20 03:47:32;;;;;;;42.25;27.60;;;0.90;57.00;;;;;;5053009;28;20638;-64
2022/03/20 03:49:59;;;;;;;41.38;26.27;;;0.90;56.80;;;;;;5053293;28;20281;-63
2022/03/20 03:52:27;;;;;;;34.88;23.17;;;0.90;57.00;;;;;;5052741;28;20198;-63
2022/03/20 03:54:54;;;;;;;36.65;22.08;;;0.90;56.60;;;;;;5052816;28;20190;-63
2022/03/20 03:57:22;;;;;;;39.50;24.60;;;0.90;56.30;;;;;;5070173;28;20189;-63
2022/03/20 03:59:50;;;;;;;35.90;23.08;;;0.80;56.00;;;;;;5068724;28;20696;-64
2022/03/20 04:02:17;;;;;;;37.80;24.02;;;0.80;56.30;;;;;;5052870;28;20596;-63
2022/03/20 04:04:47;;;;;;;34.67;21.90;;;0.80;55.80;;;;;;5053110;28;20186;-63
2022/03/20 04:07:16;;;;;;;37.55;23.67;;;0.80;55.60;;;;;;5053007;28;20679;-63
2022/03/20 04:09:44;;;;;;;35.60;22.48;;;0.80;55.50;;;;;;5058437;28;20645;-63
2022/03/20 04:12:13;;;;;;;34.58;22.95;;;0.70;55.00;;;;;;5072898;28;20593;-63
2022/03/20 04:14:42;;;;;;;38.30;22.58;;;0.60;54.10;;;;;;5067133;28;20232;-63
2022/03/20 04:17:09;;;;;;;39.50;22.40;;;0.50;55.30;;;;;;5057806;28;20244;-63
2022/03/20 04:19:36;;;;;;;31.05;20.63;;;0.50;55.20;;;;;;5059457;28;20213;-63
2022/03/20 04:22:04;;;;;;;39.58;22.90;;;0.50;54.50;;;;;;5055295;28;20187;-64
2022/03/20 04:24:32;;;;;;;38.13;24.10;;;0.40;54.50;;;;;;5072863;28;20197;-63
2022/03/20 04:26:59;;;;;;;38.25;22.15;;;0.30;55.50;;;;;;5064920;28;20194;-63
2022/03/20 04:29:27;;;;;;;40.67;24.35;;;0.30;55.70;;;;;;5052372;28;20190;-62
2022/03/20 04:31:56;;;;;;;39.00;22.08;;;0.20;55.90;;;;;;5058390;28;20305;-63
2022/03/20 04:34:23;;;;;;;34.60;21.80;;;0.20;56.00;;;;;;5065305;28;20214;-63
2022/03/20 04:36:50;;;;;;;38.28;23.30;;;0.20;56.20;;;;;;5052242;28;20214;-63
2022/03/20 04:39:17;;;;;;;37.38;22.95;;;0.30;56.90;;;;;;5052703;28;20641;-63
2022/03/20 04:41:46;;;;;;;38.47;23.42;;;0.30;57.10;;;;;;5052364;28;20222;-63
2022/03/20 04:44:13;;;;;;;38.60;24.23;;;0.40;57.40;;;;;;5060143;28;20656;-63
2022/03/20 04:46:41;;;;;;;39.85;22.73;;;0.40;57.50;;;;;;5072663;28;20206;-63
2022/03/20 05:00:09;;;;;;;35.08;23.60;;;0.40;58.40;;;;;;5072313;28;20319;-63
2022/03/20 05:02:36;;;;;;;36.72;23.83;;;0.40;59.10;;;;;;5052353;28;20190;-63
2022/03/20 05:05:06;;;;;;;40.65;24.75;;;0.50;59.60;;;;;;5052511;28;20194;-63
2022/03/20 05:07:33;;;;;;;43.80;25.80;;;0.50;59.30;;;;;;5068455;28;20273;-63
2022/03/20 05:15:44;;;;;;;40.30;24.60;;;0.40;58.60;;;;;;4971688;28;20279;-63
2022/03/20 05:18:11;;;;;;;43.50;25.25;;;0.50;58.60;;;;;;5007803;28;20191;-63
2022/03/20 05:20:40;;;;;;;37.33;23.58;;;0.50;58.60;;;;;;5071965;28;20236;-63
2022/03/20 05:23:08;;;;;;;41.20;24.05;;;0.40;58.30;;;;;;5071779;28;20244;-63
2022/03/20 05:25:36;;;;;;;36.83;23.40;;;0.50;58.10;;;;;;5048125;28;20194;-63
2022/03/20 05:28:04;;;;;;;40.45;23.83;;;0.50;57.70;;;;;;5057563;28;20190;-64
2022/03/20 05:30:32;;;;;;;35.25;23.23;;;0.50;57.60;;;;;;5051858;28;20717;-64
2022/03/20 05:32:59;;;;;;;44.78;23.40;;;0.40;57.00;;;;;;5070100;28;20217;-63
2022/03/20 05:35:32;;;;;;;33.88;22.10;;;0.30;56.50;;;;;;5065152;28;20266;-64
2022/03/20 05:38:00;;;;;;;43.03;24.13;;;0.30;56.30;;;;;;5051933;28;20245;-63
2022/03/20 05:40:28;;;;;;;36.20;24.13;;;0.20;55.90;;;;;;5061059;28;20209;-63
2022/03/20 05:42:55;;;;;;;36.22;23.67;;;0.20;57.10;;;;;;5067123;28;20213;-63
2022/03/20 05:45:23;;;;;;;42.60;23.85;;;0.30;57.80;;;;;;5055520;28;20191;-63
2022/03/20 05:47:50;;;;;;;35.92;22.95;;;0.30;57.60;;;;;;5055922;28;20186;-63
2022/03/20 05:50:17;;;;;;;34.30;21.73;;;0.30;56.90;;;;;;5055845;28;20202;-63
2022/03/20 05:52:45;;;;;;;44.40;26.92;;;0.30;56.70;;;;;;5065359;28;20182;-63
2022/03/20 05:55:13;;;;;;;41.25;25.05;;;0.30;57.40;;;;;;5075444;28;20201;-64
2022/03/20 06:00:28;;;;;;;40.58;24.77;;;0.40;58.40;;;;;;5067180;28;20702;-63
2022/03/20 06:02:55;;;;;;;45.47;25.48;;;0.50;58.50;;;;;;5055704;28;20198;-63
2022/03/20 06:05:23;;;;;;;40.17;25.17;;;0.50;58.40;;;;;;5064212;28;20186;-65
2022/03/20 06:07:52;;;;;;;32.70;23.23;;;0.50;58.80;;;;;;5075327;28;20267;-63
2022/03/20 06:10:21;;;;;;;42.72;24.92;;;0.60;59.00;;;;;;5060463;28;20193;-63
2022/03/20 06:12:48;;;;;;;39.78;25.83;;;0.80;59.20;;;;;;5055015;28;20197;-64
2022/03/20 06:15:16;;;;;;;42.22;26.63;;;0.90;59.10;;;;;;5067849;28;20194;-63
2022/03/20 06:17:44;;;;;;;39.33;24.77;;;1.10;59.50;;;;;;5061052;28;20255;-63
2022/03/20 06:20:13;;;;;;;45.17;26.67;;;1.20;58.90;;;;;;5054747;28;20222;-63
2022/03/20 06:22:41;;;;;;;41.38;29.05;;;1.20;58.60;;;;;;5055076;28;20533;-63
2022/03/20 06:25:09;;;;;;;38.92;27.88;;;1.40;59.20;;;;;;5055001;28;20205;-66
2022/03/20 06:27:45;;;;;;;40.75;25.75;;;1.50;59.30;;;;;;5070328;28;20258;-64
2022/03/20 06:30:15;;;;;;;44.17;27.27;;;1.60;59.10;;;;;;5074918;28;20196;-63
2022/03/20 06:32:42;;;;;;;41.80;26.98;;;1.80;59.10;;;;;;5057709;28;20190;-64
2022/03/20 06:35:11;;;;;;;42.03;26.73;;;2.00;59.20;;;;;;5066868;28;20197;-66
2022/03/20 06:37:39;;;;;;;39.97;27.88;;;2.10;58.70;;;;;;5054468;28;20374;-63
2022/03/20 06:40:08;;;;;;;37.65;28.45;;;2.20;58.70;;;;;;5068215;28;20651;-64
2022/03/20 06:42:36;;;;;;;39.13;25.20;;;2.40;58.80;;;;;;5074628;28;20198;-63
2022/03/20 06:45:08;;;;;;;43.83;27.05;;;2.40;58.80;;;;;;5055356;28;20186;-63
2022/03/20 06:47:36;;;;;;;41.30;26.67;;;2.50;59.00;;;;;;5054259;28;20194;-63
2022/03/20 06:50:04;;;;;;;42.05;29.38;;;2.60;59.50;;;;;;5070211;28;20186;-64
2022/03/20 06:52:31;;;;;;;40.28;26.60;;;2.90;59.90;;;;;;5056490;28;20187;-64
2022/03/20 06:54:59;;;;;;;46.25;30.30;;;3.30;59.60;;;;;;5054430;28;20637;-63
2022/03/20 06:57:27;;;;;;;44.55;30.67;;;3.60;59.40;;;;;;5054561;28;20256;-63
2022/03/20 06:59:56;;;;;;;43.05;28.98;;;4.00;59.80;;;;;;5054571;28;20209;-64
2022/03/20 07:02:24;;;;;;;37.10;25.60;;;4.40;58.70;;;;;;5074123;28;20222;-64
2022/03/20 07:04:52;;;;;;;43.17;27.85;;;4.90;57.70;;;;;;5074402;28;20192;-65
2022/03/20 07:07:19;;;;;;;44.33;28.38;;;5.50;55.90;;;;;;5071767;28;20186;-64
2022/03/20 07:09:47;;;;;;;42.08;28.58;;;6.10;55.00;;;;;;5055110;28;20191;-63
2022/03/20 07:12:14;;;;;;;39.70;26.50;;;6.90;54.90;;;;;;5053954;28;20197;-64
2022/03/20 07:14:42;;;;;;;37.17;27.27;;;8.00;54.70;;;;;;5053992;28;20187;-64
2022/03/20 07:17:11;;;;;;;38.92;26.73;;;9.00;52.50;;;;;;5050429;28;20285;-64
2022/03/20 07:19:42;;;;;;;34.88;24.40;;;10.40;50.10;;;;;;5051246;28;20245;-65
2022/03/20 07:22:10;;;;;;;38.85;28.25;;;12.20;45.70;;;;;;5052022;28;20217;-65
2022/03/20 07:24:39;;;;;;;35.10;27.83;;;13.80;41.60;;;;;;5054393;28;20637;-64
2022/03/20 07:29:52;;;;;;;33.15;27.05;;;16.40;35.10;;;;;;5052068;28;20530;-64
2022/03/20 07:32:19;;;;;;;36.15;27.77;;;17.70;32.10;;;;;;5052066;28;21001;-65
2022/03/20 07:34:48;;;;;;;32.53;28.95;;;18.60;29.40;;;;;;5053314;28;20222;-65
2022/03/20 07:37:16;;;;;;;30.57;27.27;;;19.60;29.10;;;;;;5051754;28;20199;-65
2022/03/20 07:39:44;;;;;;;34.57;29.77;;;20.60;26.10;;;;;;5053939;28;20440;-64
2022/03/20 07:42:11;;;;;;;34.83;31.13;;;21.10;24.60;;;;;;5052759;28;20518;-64
2022/03/20 07:44:38;;;;;;;33.57;30.00;;;21.70;24.60;;;;;;5051505;28;20443;-66
2022/03/20 07:47:08;;;;;;;33.80;29.27;;;22.50;23.00;;;;;;5047225;28;20443;-65
2022/03/20 07:49:36;;;;;;;37.07;31.43;;;23.10;23.00;;;;;;5051991;28;20518;-63
2022/03/20 07:52:06;;;;;;;31.67;28.27;;;24.10;23.50;;;;;;5051418;28;20994;-64
2022/03/20 07:54:36;;;;;;;33.07;28.57;;;25.30;22.20;;;;;;5051218;28;20440;-63
2022/03/20 07:57:04;;;;;;;32.73;29.47;;;26.20;21.20;;;;;;5051430;28;21006;-64
2022/03/20 07:59:31;;;;;;;31.27;28.07;;;26.90;19.40;;;;;;5052114;28;20429;-63
2022/03/20 08:01:59;;;;;;;32.57;29.27;;;27.60;19.80;;;;;;5050211;28;20433;-66
2022/03/20 08:04:26;;;;;;;33.20;29.80;;;28.40;18.20;;;;;;5055059;28;20433;-64
2022/03/20 08:06:53;;;;;;;33.50;29.43;;;29.10;17.90;;;;;;5051577;28;20433;-64
2022/03/20 08:09:22;;;;;;;29.73;26.77;;;29.70;17.10;;;;;;5051240;28;20448;-63
2022/03/20 08:11:49;;;;;;;30.57;27.63;;;30.50;16.60;;;;;;5050703;28;20484;-64
2022/03/20 08:14:16;;;;;;;29.50;26.80;;;31.20;16.40;;;;;;5051393;28;20443;-64
2022/03/20 08:16:43;;;;;;;31.13;28.10;;;31.80;15.10;;;;;;5051097;28;20463;-64
2022/03/20 08:19:11;;;;;;;30.33;27.40;;;32.40;14.20;;;;;;5050921;28;20440;-64
2022/03/20 08:21:39;;;;;;;31.90;28.80;;;32.90;14.30;;;;;;5053145;28;20833;-64
2022/03/20 08:24:07;;;;;;;33.27;30.17;;;33.00;12.80;;;;;;5051139;28;20448;-64
2022/03/20 08:26:36;;;;;;;31.50;28.77;;;33.30;13.60;;;;;;5050954;28;20433;-65
2022/03/20 08:29:04;;;;;;;30.57;27.63;;;33.70;13.50;;;;;;5050627;28;20841;-64
2022/03/20 08:31:33;;;;;;;31.00;28.00;;;34.30;12.90;;;;;;5050788;28;20983;-64
2022/03/20 08:34:01;;;;;;;32.57;29.27;;;34.50;11.80;;;;;;5050789;28;21003;-64
2022/03/20 08:36:29;;;;;;;30.53;27.77;;;34.90;11.70;;;;;;5046747;28;20439;-65
2022/03/20 08:38:56;;;;;;;32.13;29.27;;;35.60;11.70;;;;;;5046628;28;20445;-65
2022/03/20 08:41:23;;;;;;;32.67;29.77;;;36.20;11.60;;;;;;5050236;28;20437;-65
2022/03/20 08:43:51;;;;;;;31.57;28.53;;;36.70;11.20;;;;;;5050471;28;20516;-64
2022/03/20 08:46:18;;;;;;;31.60;28.70;;;37.30;10.50;;;;;;5049822;28;20445;-65
2022/03/20 08:48:45;;;;;;;30.87;28.10;;;37.80;10.40;;;;;;5050470;28;20432;-64
2022/03/20 08:51:12;;;;;;;32.07;29.27;;;38.20;9.60;;;;;;5052689;28;20483;-65
2022/03/20 08:53:39;;;;;;;29.30;26.80;;;38.60;10.40;;;;;;5050585;28;20510;-64
2022/03/20 08:56:07;;;;;;;29.03;26.50;;;39.10;9.80;;;;;;5050116;28;20437;-64
2022/03/20 08:58:34;;;;;;;31.77;28.97;;;39.60;9.60;;;;;;5053311;28;20954;-64
2022/03/20 09:01:02;;;;;;;30.27;27.73;;;40.10;8.80;;;;;;5050659;28;20449;-64
2022/03/20 09:03:29;;;;;;;31.63;29.03;;;40.60;8.40;;;;;;5050322;28;20459;-64
2022/03/20 09:05:56;;;;;;;31.30;28.70;;;40.90;8.30;;;;;;5050268;28;20444;-64
2022/03/20 09:08:23;;;;;;;27.80;25.40;;;41.40;8.40;;;;;;5051894;28;20433;-64
2022/03/20 09:10:51;;;;;;;28.70;26.30;;;41.80;7.90;;;;;;5050312;28;20445;-64
2022/03/20 09:13:18;;;;;;;27.40;24.80;;;42.20;7.80;;;;;;5050316;28;20935;-66
2022/03/20 09:18:58;;;;;;;26.50;24.30;;;42.60;7.20;;;;;;5054287;28;20443;-64
2022/03/20 09:21:19;;;;;;;24.73;22.60;;;43.20;6.30;;;;;;5054435;28;20614;-64
2022/03/20 09:23:48;;;;;;;26.23;23.87;;;43.50;6.90;;;;;;5055194;28;20779;-65
2022/03/20 09:26:15;;;;;;;24.40;22.50;;;43.80;6.60;;;;;;5054147;28;20954;-64
2022/03/20 09:28:42;;;;;;;24.87;22.77;;;44.10;6.70;;;;;;5054486;28;20794;-64
2022/03/20 09:31:10;;;;;;;24.07;22.00;;;44.60;6.30;;;;;;5054468;28;20486;-64
2022/03/20 09:33:38;;;;;;;25.60;23.40;;;45.00;5.90;;;;;;5054595;28;20558;-64
2022/03/20 09:36:06;;;;;;;23.10;21.20;;;45.30;5.50;;;;;;5055530;28;20433;-65
2022/03/20 09:38:34;;;;;;;24.40;22.40;;;45.50;5.70;;;;;;5053951;28;20527;-64
2022/03/20 09:41:07;;;;;;;24.50;22.23;;;45.70;5.70;;;;;;5053408;28;20839;-65
2022/03/20 09:43:34;;;;;;;23.47;21.47;;;46.00;5.60;;;;;;5053944;28;20432;-65
2022/03/20 09:46:02;;;;;;;23.43;21.43;;;46.40;5.30;;;;;;5053892;28;20436;-64
2022/03/20 09:48:29;;;;;;;22.57;20.67;;;46.70;5.40;;;;;;5053640;28;20436;-66
2022/03/20 09:50:58;;;;;;;22.17;20.37;;;46.80;5.00;;;;;;5053675;28;20432;-64
2022/03/20 09:53:26;;;;;;;22.23;20.33;;;47.10;4.90;;;;;;5054072;28;20437;-64
2022/03/20 09:55:54;;;;;;;20.83;19.23;;;47.30;4.70;;;;;;5053259;28;20429;-67
2022/03/20 09:58:25;;;;;;;22.47;20.57;;;47.40;4.90;;;;;;5055262;28;20433;-64
2022/03/20 10:00:58;;;;;;;22.87;21.10;;;47.70;4.60;;;;;;5053506;28;20432;-64
2022/03/20 10:03:26;;;;;;;22.07;20.23;;;47.80;4.70;;;;;;5059787;28;20515;-64
2022/03/20 10:06:16;;;;;;;22.10;20.37;;;48.20;4.80;;;;;;5053328;28;20441;-65
2022/03/20 10:09:07;;;;;;;21.67;19.67;;;48.60;4.70;;;;;;5053474;28;20792;-65
2022/03/20 10:11:36;;;;;;;21.00;19.40;;;49.00;4.40;;;;;;5053262;28;20441;-65
2022/03/20 10:14:12;;;;;;;21.30;19.70;;;49.50;4.40;;;;;;5053672;28;20436;-65
2022/03/20 10:16:41;;;;;;;20.93;19.13;;;49.60;4.40;;;;;;5053354;28;20858;-64
2022/03/20 10:19:29;;;;;;;20.33;18.70;;;49.50;4.20;;;;;;5052831;28;20445;-65
2022/03/20 10:21:59;;;;;;;19.87;18.23;;;49.70;4.00;;;;;;5054665;28;20527;-67
2022/03/20 10:24:29;;;;;;;20.37;18.57;;;49.90;4.30;;;;;;5049541;28;20440;-64
2022/03/20 10:27:09;;;;;;;18.93;17.17;;;50.10;3.60;;;;;;5052207;28;20536;-65
2022/03/20 10:29:46;;;;;;;21.40;19.27;;;50.30;3.70;;;;;;5052809;28;20802;-65
2022/03/20 10:32:13;;;;;;;18.73;17.17;;;50.60;3.70;;;;;;5052972;28;20836;-64
2022/03/20 10:34:57;;;;;;;18.37;16.83;;;50.80;3.70;;;;;;5052209;28;20461;-66
2022/03/20 10:37:51;;;;;;;18.47;16.73;;;51.10;3.30;;;;;;5052496;28;20444;-65
2022/03/20 10:40:20;;;;;;;19.37;17.87;;;51.30;3.40;;;;;;5051165;28;20432;-64
2022/03/20 10:43:07;;;;;;;19.43;17.77;;;51.50;3.40;;;;;;5052143;28;20484;-65
2022/03/20 10:45:54;;;;;;;17.50;16.20;;;51.50;3.30;;;;;;5052770;28;20433;-64
2022/03/20 10:48:31;;;;;;;18.03;16.53;;;51.80;3.10;;;;;;5052696;28;20433;-64
2022/03/20 10:50:59;;;;;;;17.20;15.80;;;52.00;2.90;;;;;;5049008;28;20794;-65
2022/03/20 10:53:27;;;;;;;15.93;14.63;;;51.90;2.90;;;;;;5052961;28;20452;-64
2022/03/20 10:56:04;;;;;;;15.70;14.50;;;51.80;2.80;;;;;;5052908;28;20808;-64
2022/03/20 10:58:32;;;;;;;15.10;14.00;;;51.80;2.80;;;;;;5053365;28;20511;-65
2022/03/20 11:00:59;;;;;;;15.57;14.37;;;51.90;1.80;;;;;;5055547;28;20804;-65
2022/03/20 11:03:27;;;;;;;15.03;13.83;;;51.80;2.40;;;;;;5059329;28;20561;-66
2022/03/20 11:05:54;;;;;;;14.40;13.27;;;51.90;2.00;;;;;;5054698;28;20480;-65
2022/03/20 11:08:23;;;;;;;14.27;13.13;;;51.80;2.00;;;;;;5052361;28;20448;-65
2022/03/20 11:10:52;;;;;;;14.63;13.47;;;51.90;2.10;;;;;;5052420;28;20445;-65
2022/03/20 11:13:23;;;;;;;14.30;13.10;;;52.20;2.00;;;;;;5051910;28;20486;-65
2022/03/20 11:15:53;;;;;;;13.00;11.70;;;52.30;1.70;;;;;;5051164;28;20925;-65
2022/03/20 11:18:24;;;;;;;14.90;13.70;;;52.30;1.80;;;;;;5051945;28;20536;-65
2022/03/20 11:20:53;;;;;;;14.13;13.03;;;52.20;1.70;;;;;;5051294;28;20518;-65
2022/03/20 11:23:24;;;;;;;14.40;13.13;;;52.10;1.80;;;;;;5053030;28;20480;-64
2022/03/20 11:25:55;;;;;;;14.47;13.00;;;52.30;1.80;;;;;;5050650;28;20475;-65
2022/03/20 11:28:23;;;;;;;13.50;12.40;;;52.40;1.70;;;;;;5047312;28;20443;-69
2022/03/20 11:30:53;;;;;;;13.97;12.97;;;52.60;1.90;;;;;;5055045;28;20452;-64
2022/03/20 11:33:22;;;;;;;13.40;12.30;;;52.60;1.50;;;;;;5051810;28;20468;-65
2022/03/20 11:35:50;;;;;;;12.53;11.47;;;52.60;1.40;;;;;;5051981;28;20943;-65
2022/03/20 11:38:19;;;;;;;13.23;12.03;;;52.50;1.40;;;;;;5051666;28;20456;-64
2022/03/20 11:41:07;;;;;;;12.17;10.93;;;52.40;1.40;;;;;;5053031;28;20437;-64
2022/03/20 11:43:35;;;;;;;13.50;11.70;;;52.30;1.30;;;;;;5048897;28;20567;-64
2022/03/20 11:46:20;;;;;;;14.20;13.10;;;52.40;1.60;;;;;;5051968;28;20440;-66
2022/03/20 11:49:23;;;;;;;11.97;10.97;;;52.20;1.40;;;;;;5051679;28;20527;-65
2022/03/20 11:52:07;;;;;;;12.83;11.70;;;52.00;1.00;;;;;;5049958;28;20440;-66
2022/03/20 11:54:57;;;;;;;13.30;12.20;;;51.60;1.60;;;;;;5051681;28;20872;-64
2022/03/20 11:57:45;;;;;;;13.27;12.00;;;51.60;1.40;;;;;;5048871;28;20473;-65
2022/03/20 12:00:18;;;;;;;12.57;11.57;;;51.60;1.40;;;;;;5047831;28;20487;-65
2022/03/20 12:02:59;;;;;;;12.53;11.33;;;51.80;1.50;;;;;;5054876;28;20568;-64
2022/03/20 12:05:40;;;;;;;11.40;10.40;;;51.90;1.10;;;;;;5048281;28;20463;-64
2022/03/20 12:08:22;;;;;;;12.60;11.40;;;51.80;1.50;;;;;;5056574;28;20858;-64
2022/03/20 12:11:01;;;;;;;12.97;11.87;;;51.80;1.40;;;;;;5051385;28;20441;-64
2022/03/20 12:13:42;;;;;;;11.90;11.00;;;51.50;1.50;;;;;;5048096;28;20523;-65
2022/03/20 12:16:09;;;;;;;11.63;10.67;;;51.30;1.90;;;;;;5052981;28;20498;-65
2022/03/20 12:19:08;;;;;;;11.67;10.57;;;51.30;1.50;;;;;;5051035;28;20440;-64
2022/03/20 12:21:55;;;;;;;13.63;12.53;;;51.10;1.50;;;;;;5050969;28;20444;-64
2022/03/20 12:24:52;;;;;;;11.13;10.23;;;50.90;1.40;;;;;;5046862;28;20490;-64
2022/03/20 12:27:43;;;;;;;13.00;11.90;;;50.50;1.40;;;;;;5047270;28;20927;-64
2022/03/20 12:30:46;;;;;;;12.53;11.50;;;50.20;1.00;;;;;;5036887;28;20968;-64
2022/03/20 12:33:27;;;;;;;12.20;11.20;;;49.80;1.40;;;;;;5051274;28;20471;-64
2022/03/20 12:35:54;;;;;;;12.73;11.57;;;49.60;1.60;;;;;;5050732;28;20443;-64
2022/03/20 12:38:42;;;;;;;11.77;10.77;;;49.20;1.80;;;;;;5051073;28;20920;-64
2022/03/20 12:41:20;;;;;;;12.70;11.07;;;49.00;1.90;;;;;;5046745;28;20441;-64
2022/03/20 12:44:01;;;;;;;11.10;10.20;;;48.50;1.80;;;;;;5050179;28;20488;-64
2022/03/20 12:46:29;;;;;;;10.90;10.10;;;47.70;1.50;;;;;;5050821;28;20905;-64
2022/03/20 12:48:57;;;;;;;11.53;10.57;;;46.40;1.70;;;;;;5051837;28;20498;-64
2022/03/20 12:51:35;;;;;;;12.90;11.80;;;45.90;2.00;;;;;;5050277;28;20519;-66
2022/03/20 12:54:06;;;;;;;13.20;12.00;;;45.50;1.70;;;;;;5048905;28;20531;-64
2022/03/20 12:56:33;;;;;;;11.50;10.50;;;44.70;1.70;;;;;;5050343;28;20550;-65
2022/03/20 12:59:00;;;;;;;12.27;11.17;;;43.70;2.40;;;;;;5050600;28;20429;-63
2022/03/20 13:01:39;;;;;;;11.50;10.50;;;42.40;2.10;;;;;;5050385;28;20944;-63
2022/03/20 13:04:18;;;;;;;12.50;11.30;;;40.90;3.20;;;;;;5049881;28;20813;-65
2022/03/20 13:06:45;;;;;;;12.63;11.43;;;39.90;3.10;;;;;;5050406;28;20959;-64
2022/03/20 13:09:13;;;;;;;11.73;10.60;;;39.30;3.30;;;;;;5050453;28;20436;-63
2022/03/20 13:11:51;;;;;;;11.77;10.07;;;38.50;3.20;;;;;;5049610;28;20436;-67
2022/03/20 13:14:19;;;;;;;11.60;10.50;;;37.70;3.90;;;;;;5052182;28;20432;-64
2022/03/20 13:16:53;;;;;;;10.63;9.70;;;36.90;4.00;;;;;;5049949;28;20437;-64
2022/03/20 13:19:28;;;;;;;14.10;10.70;;;36.10;4.00;;;;;;5050509;28;20709;-63
2022/03/20 13:21:55;;;;;;;12.37;11.17;;;35.00;4.60;;;;;;5050438;28;20464;-63
2022/03/20 13:24:34;;;;;;;13.20;10.87;;;33.80;4.90;;;;;;5050056;28;20477;-63